sensor_id;sensor_type;location;lat;lon;timestamp;P1;durP1;ratioP1;P2;durP2;ratioP2
21848;SDS011;11089;49.852;19.700;2024-01-30T00:02:47;28.02;;;11.80;;
21848;SDS011;11089;49.852;19.700;2024-01-30T00:05:48;19.02;;;7.50;;
21848;SDS011;11089;49.852;19.700;2024-01-30T00:08:49;16.83;;;7.68;;
21848;SDS011;11089;49.852;19.700;2024-01-30T00:11:50;15.63;;;7.93;;
21848;SDS011;11089;49.852;19.700;2024-01-30T00:14:51;17.98;;;7.70;;
21848;SDS011;11089;49.852;19.700;2024-01-30T00:17:51;22.42;;;9.35;;
21848;SDS011;11089;49.852;19.700;2024-01-30T00:20:52;16.30;;;7.28;;
21848;SDS011;11089;49.852;19.700;2024-01-30T00:23:53;16.10;;;7.95;;
21848;SDS011;11089;49.852;19.700;2024-01-30T00:26:54;20.58;;;8.05;;
21848;SDS011;11089;49.852;19.700;2024-01-30T00:29:55;18.38;;;8.27;;
21848;SDS011;11089;49.852;19.700;2024-01-30T00:32:56;20.90;;;8.50;;
21848;SDS011;11089;49.852;19.700;2024-01-30T00:35:57;21.05;;;9.35;;
21848;SDS011;11089;49.852;19.700;2024-01-30T00:38:58;17.60;;;7.68;;
21848;SDS011;11089;49.852;19.700;2024-01-30T00:41:59;14.68;;;6.82;;
21848;SDS011;11089;49.852;19.700;2024-01-30T00:44:59;15.57;;;7.78;;
21848;SDS011;11089;49.852;19.700;2024-01-30T00:48:00;13.27;;;6.55;;
21848;SDS011;11089;49.852;19.700;2024-01-30T00:51:01;12.93;;;6.38;;
21848;SDS011;11089;49.852;19.700;2024-01-30T00:54:02;16.33;;;7.45;;
21848;SDS011;11089;49.852;19.700;2024-01-30T00:57:03;15.90;;;6.78;;
21848;SDS011;11089;49.852;19.700;2024-01-30T01:00:05;18.17;;;8.13;;
21848;SDS011;11089;49.852;19.700;2024-01-30T01:03:08;13.48;;;5.28;;
21848;SDS011;11089;49.852;19.700;2024-01-30T01:06:09;14.20;;;6.78;;
21848;SDS011;11089;49.852;19.700;2024-01-30T01:09:10;13.57;;;7.05;;
21848;SDS011;11089;49.852;19.700;2024-01-30T01:12:12;13.15;;;5.95;;
21848;SDS011;11089;49.852;19.700;2024-01-30T01:15:12;13.50;;;6.13;;
21848;SDS011;11089;49.852;19.700;2024-01-30T01:18:13;12.52;;;5.65;;
21848;SDS011;11089;49.852;19.700;2024-01-30T01:21:14;10.23;;;5.35;;
21848;SDS011;11089;49.852;19.700;2024-01-30T01:24:15;13.77;;;5.75;;
21848;SDS011;11089;49.852;19.700;2024-01-30T01:27:16;14.73;;;7.30;;
21848;SDS011;11089;49.852;19.700;2024-01-30T01:30:17;13.18;;;6.82;;
21848;SDS011;11089;49.852;19.700;2024-01-30T01:33:25;17.17;;;8.32;;
21848;SDS011;11089;49.852;19.700;2024-01-30T01:36:26;17.83;;;9.32;;
21848;SDS011;11089;49.852;19.700;2024-01-30T01:39:27;21.42;;;9.70;;
21848;SDS011;11089;49.852;19.700;2024-01-30T01:42:28;21.17;;;10.05;;
21848;SDS011;11089;49.852;19.700;2024-01-30T01:45:29;22.63;;;10.70;;
21848;SDS011;11089;49.852;19.700;2024-01-30T01:48:30;24.30;;;10.43;;
21848;SDS011;11089;49.852;19.700;2024-01-30T01:51:31;22.98;;;11.25;;
21848;SDS011;11089;49.852;19.700;2024-01-30T01:54:35;23.23;;;10.25;;
21848;SDS011;11089;49.852;19.700;2024-01-30T01:57:36;22.33;;;9.85;;
21848;SDS011;11089;49.852;19.700;2024-01-30T02:00:38;21.25;;;8.90;;
21848;SDS011;11089;49.852;19.700;2024-01-30T02:03:41;20.27;;;9.25;;
21848;SDS011;11089;49.852;19.700;2024-01-30T02:06:43;18.73;;;9.25;;
21848;SDS011;11089;49.852;19.700;2024-01-30T02:09:44;21.35;;;10.00;;
21848;SDS011;11089;49.852;19.700;2024-01-30T02:12:45;21.77;;;9.82;;
21848;SDS011;11089;49.852;19.700;2024-01-30T02:15:49;20.60;;;9.73;;
21848;SDS011;11089;49.852;19.700;2024-01-30T02:18:51;17.02;;;8.00;;
21848;SDS011;11089;49.852;19.700;2024-01-30T02:21:52;15.23;;;6.55;;
21848;SDS011;11089;49.852;19.700;2024-01-30T02:24:54;13.38;;;5.93;;
21848;SDS011;11089;49.852;19.700;2024-01-30T02:27:55;12.90;;;5.97;;
21848;SDS011;11089;49.852;19.700;2024-01-30T02:30:56;12.57;;;5.82;;
21848;SDS011;11089;49.852;19.700;2024-01-30T02:33:57;12.88;;;6.80;;
21848;SDS011;11089;49.852;19.700;2024-01-30T02:36:58;16.90;;;7.43;;
21848;SDS011;11089;49.852;19.700;2024-01-30T02:39:59;17.30;;;6.80;;
21848;SDS011;11089;49.852;19.700;2024-01-30T02:43:00;14.20;;;6.38;;
21848;SDS011;11089;49.852;19.700;2024-01-30T02:46:02;17.73;;;7.03;;
21848;SDS011;11089;49.852;19.700;2024-01-30T02:49:03;10.98;;;5.53;;
21848;SDS011;11089;49.852;19.700;2024-01-30T02:52:04;10.35;;;5.40;;
21848;SDS011;11089;49.852;19.700;2024-01-30T02:55:05;10.98;;;5.13;;
21848;SDS011;11089;49.852;19.700;2024-01-30T02:58:06;10.77;;;5.15;;
21848;SDS011;11089;49.852;19.700;2024-01-30T03:01:07;11.13;;;4.60;;
21848;SDS011;11089;49.852;19.700;2024-01-30T03:04:08;10.90;;;4.60;;
21848;SDS011;11089;49.852;19.700;2024-01-30T03:07:09;9.77;;;4.95;;
21848;SDS011;11089;49.852;19.700;2024-01-30T03:10:10;8.75;;;4.65;;
21848;SDS011;11089;49.852;19.700;2024-01-30T03:13:11;13.00;;;6.15;;
21848;SDS011;11089;49.852;19.700;2024-01-30T03:16:12;16.70;;;7.32;;
21848;SDS011;11089;49.852;19.700;2024-01-30T03:19:13;12.95;;;6.90;;
21848;SDS011;11089;49.852;19.700;2024-01-30T03:22:14;15.35;;;6.47;;
21848;SDS011;11089;49.852;19.700;2024-01-30T03:25:14;14.15;;;7.18;;
21848;SDS011;11089;49.852;19.700;2024-01-30T03:28:15;13.10;;;6.70;;
21848;SDS011;11089;49.852;19.700;2024-01-30T03:31:16;14.00;;;6.32;;
21848;SDS011;11089;49.852;19.700;2024-01-30T03:34:17;11.00;;;6.30;;
21848;SDS011;11089;49.852;19.700;2024-01-30T03:37:18;16.58;;;7.63;;
21848;SDS011;11089;49.852;19.700;2024-01-30T03:40:19;11.90;;;5.95;;
21848;SDS011;11089;49.852;19.700;2024-01-30T03:43:20;11.10;;;5.70;;
21848;SDS011;11089;49.852;19.700;2024-01-30T03:46:21;9.95;;;4.68;;
21848;SDS011;11089;49.852;19.700;2024-01-30T03:49:22;14.45;;;5.20;;
21848;SDS011;11089;49.852;19.700;2024-01-30T03:52:23;10.30;;;4.97;;
21848;SDS011;11089;49.852;19.700;2024-01-30T03:55:24;10.73;;;4.72;;
21848;SDS011;11089;49.852;19.700;2024-01-30T03:58:25;9.65;;;4.97;;
21848;SDS011;11089;49.852;19.700;2024-01-30T04:01:26;10.35;;;5.15;;
21848;SDS011;11089;49.852;19.700;2024-01-30T04:04:27;9.00;;;5.30;;
21848;SDS011;11089;49.852;19.700;2024-01-30T04:07:28;9.82;;;4.90;;
21848;SDS011;11089;49.852;19.700;2024-01-30T04:10:29;14.05;;;5.78;;
21848;SDS011;11089;49.852;19.700;2024-01-30T04:13:30;10.45;;;5.05;;
21848;SDS011;11089;49.852;19.700;2024-01-30T04:16:31;9.40;;;4.53;;
21848;SDS011;11089;49.852;19.700;2024-01-30T04:19:32;9.80;;;4.75;;
21848;SDS011;11089;49.852;19.700;2024-01-30T04:22:32;11.98;;;5.22;;
21848;SDS011;11089;49.852;19.700;2024-01-30T04:25:33;10.93;;;4.95;;
21848;SDS011;11089;49.852;19.700;2024-01-30T04:28:34;10.70;;;5.38;;
21848;SDS011;11089;49.852;19.700;2024-01-30T04:31:38;13.18;;;6.22;;
21848;SDS011;11089;49.852;19.700;2024-01-30T04:34:39;11.68;;;4.43;;
21848;SDS011;11089;49.852;19.700;2024-01-30T04:37:40;9.88;;;5.47;;
21848;SDS011;11089;49.852;19.700;2024-01-30T04:40:41;9.98;;;5.13;;
21848;SDS011;11089;49.852;19.700;2024-01-30T04:43:42;13.52;;;5.45;;
21848;SDS011;11089;49.852;19.700;2024-01-30T04:46:43;14.20;;;6.40;;
21848;SDS011;11089;49.852;19.700;2024-01-30T04:49:43;13.70;;;6.22;;
21848;SDS011;11089;49.852;19.700;2024-01-30T04:52:44;12.63;;;5.55;;
21848;SDS011;11089;49.852;19.700;2024-01-30T04:55:45;13.07;;;5.70;;
21848;SDS011;11089;49.852;19.700;2024-01-30T04:58:46;11.52;;;5.43;;
21848;SDS011;11089;49.852;19.700;2024-01-30T05:01:47;14.68;;;5.90;;
21848;SDS011;11089;49.852;19.700;2024-01-30T05:04:48;12.50;;;5.70;;
21848;SDS011;11089;49.852;19.700;2024-01-30T05:07:49;14.07;;;6.32;;
21848;SDS011;11089;49.852;19.700;2024-01-30T05:10:50;11.38;;;5.10;;
21848;SDS011;11089;49.852;19.700;2024-01-30T05:13:51;11.88;;;5.88;;
21848;SDS011;11089;49.852;19.700;2024-01-30T05:16:52;11.70;;;5.75;;
21848;SDS011;11089;49.852;19.700;2024-01-30T05:19:53;11.35;;;5.28;;
21848;SDS011;11089;49.852;19.700;2024-01-30T05:22:54;11.63;;;4.88;;
21848;SDS011;11089;49.852;19.700;2024-01-30T05:25:55;8.60;;;4.38;;
21848;SDS011;11089;49.852;19.700;2024-01-30T05:28:56;8.60;;;4.50;;
21848;SDS011;11089;49.852;19.700;2024-01-30T05:31:57;8.73;;;4.10;;
21848;SDS011;11089;49.852;19.700;2024-01-30T05:34:58;9.35;;;3.80;;
21848;SDS011;11089;49.852;19.700;2024-01-30T05:37:59;7.75;;;4.25;;
21848;SDS011;11089;49.852;19.700;2024-01-30T05:41:00;9.80;;;3.85;;
21848;SDS011;11089;49.852;19.700;2024-01-30T05:44:01;7.97;;;3.67;;
21848;SDS011;11089;49.852;19.700;2024-01-30T05:47:02;10.85;;;4.30;;
21848;SDS011;11089;49.852;19.700;2024-01-30T05:50:03;9.38;;;4.50;;
21848;SDS011;11089;49.852;19.700;2024-01-30T05:53:05;14.55;;;6.13;;
21848;SDS011;11089;49.852;19.700;2024-01-30T05:56:06;12.88;;;6.93;;
21848;SDS011;11089;49.852;19.700;2024-01-30T05:59:07;22.35;;;9.27;;
21848;SDS011;11089;49.852;19.700;2024-01-30T06:02:07;20.08;;;9.15;;
21848;SDS011;11089;49.852;19.700;2024-01-30T06:05:08;11.85;;;5.18;;
21848;SDS011;11089;49.852;19.700;2024-01-30T06:08:09;18.35;;;7.43;;
21848;SDS011;11089;49.852;19.700;2024-01-30T06:11:11;28.17;;;9.48;;
21848;SDS011;11089;49.852;19.700;2024-01-30T06:14:14;38.30;;;12.75;;
21848;SDS011;11089;49.852;19.700;2024-01-30T06:17:15;29.55;;;8.93;;
21848;SDS011;11089;49.852;19.700;2024-01-30T06:20:16;16.38;;;6.78;;
21848;SDS011;11089;49.852;19.700;2024-01-30T06:23:18;14.18;;;6.63;;
21848;SDS011;11089;49.852;19.700;2024-01-30T06:26:19;18.13;;;6.90;;
21848;SDS011;11089;49.852;19.700;2024-01-30T06:29:20;22.50;;;9.27;;
21848;SDS011;11089;49.852;19.700;2024-01-30T06:32:21;21.50;;;8.77;;
21848;SDS011;11089;49.852;19.700;2024-01-30T06:35:22;20.08;;;9.30;;
21848;SDS011;11089;49.852;19.700;2024-01-30T06:38:23;16.30;;;7.60;;
21848;SDS011;11089;49.852;19.700;2024-01-30T06:41:24;19.20;;;7.97;;
21848;SDS011;11089;49.852;19.700;2024-01-30T06:44:25;35.05;;;13.23;;
21848;SDS011;11089;49.852;19.700;2024-01-30T06:47:26;25.77;;;10.45;;
21848;SDS011;11089;49.852;19.700;2024-01-30T06:50:27;28.15;;;10.77;;
21848;SDS011;11089;49.852;19.700;2024-01-30T06:53:28;61.67;;;23.95;;
21848;SDS011;11089;49.852;19.700;2024-01-30T06:56:29;41.70;;;17.08;;
21848;SDS011;11089;49.852;19.700;2024-01-30T06:59:31;37.20;;;15.32;;
21848;SDS011;11089;49.852;19.700;2024-01-30T07:02:32;40.25;;;16.73;;
21848;SDS011;11089;49.852;19.700;2024-01-30T07:05:33;39.33;;;15.73;;
21848;SDS011;11089;49.852;19.700;2024-01-30T07:08:34;35.67;;;13.73;;
21848;SDS011;11089;49.852;19.700;2024-01-30T07:11:35;33.25;;;13.02;;
21848;SDS011;11089;49.852;19.700;2024-01-30T07:14:36;34.22;;;13.70;;
21848;SDS011;11089;49.852;19.700;2024-01-30T07:17:37;33.20;;;13.20;;
21848;SDS011;11089;49.852;19.700;2024-01-30T07:20:39;30.58;;;9.98;;
21848;SDS011;11089;49.852;19.700;2024-01-30T07:23:49;17.50;;;7.18;;
21848;SDS011;11089;49.852;19.700;2024-01-30T07:26:50;10.90;;;5.68;;
21848;SDS011;11089;49.852;19.700;2024-01-30T07:29:51;14.55;;;5.65;;
21848;SDS011;11089;49.852;19.700;2024-01-30T07:32:52;12.15;;;4.53;;
21848;SDS011;11089;49.852;19.700;2024-01-30T07:35:53;10.20;;;4.57;;
21848;SDS011;11089;49.852;19.700;2024-01-30T07:38:54;12.40;;;5.25;;
21848;SDS011;11089;49.852;19.700;2024-01-30T07:41:55;11.27;;;5.20;;
21848;SDS011;11089;49.852;19.700;2024-01-30T07:44:55;17.33;;;7.10;;
21848;SDS011;11089;49.852;19.700;2024-01-30T07:47:56;21.73;;;9.50;;
21848;SDS011;11089;49.852;19.700;2024-01-30T07:50:57;25.08;;;11.82;;
21848;SDS011;11089;49.852;19.700;2024-01-30T07:53:58;21.98;;;10.13;;
21848;SDS011;11089;49.852;19.700;2024-01-30T07:57:00;20.60;;;8.05;;
21848;SDS011;11089;49.852;19.700;2024-01-30T08:00:01;12.45;;;5.68;;
21848;SDS011;11089;49.852;19.700;2024-01-30T08:03:03;12.70;;;5.28;;
21848;SDS011;11089;49.852;19.700;2024-01-30T08:06:04;11.55;;;4.70;;
21848;SDS011;11089;49.852;19.700;2024-01-30T08:09:06;8.63;;;3.67;;
21848;SDS011;11089;49.852;19.700;2024-01-30T08:12:07;8.45;;;3.97;;
21848;SDS011;11089;49.852;19.700;2024-01-30T08:15:08;8.13;;;3.88;;
21848;SDS011;11089;49.852;19.700;2024-01-30T08:18:09;6.65;;;3.90;;
21848;SDS011;11089;49.852;19.700;2024-01-30T08:21:10;9.98;;;4.55;;
21848;SDS011;11089;49.852;19.700;2024-01-30T08:24:11;8.27;;;4.05;;
21848;SDS011;11089;49.852;19.700;2024-01-30T08:27:12;11.80;;;5.00;;
21848;SDS011;11089;49.852;19.700;2024-01-30T08:30:13;7.80;;;3.85;;
21848;SDS011;11089;49.852;19.700;2024-01-30T08:33:14;8.23;;;4.00;;
21848;SDS011;11089;49.852;19.700;2024-01-30T08:36:18;7.45;;;3.92;;
21848;SDS011;11089;49.852;19.700;2024-01-30T08:39:19;7.55;;;3.65;;
21848;SDS011;11089;49.852;19.700;2024-01-30T08:42:20;8.10;;;4.28;;
21848;SDS011;11089;49.852;19.700;2024-01-30T08:45:22;11.00;;;4.13;;
21848;SDS011;11089;49.852;19.700;2024-01-30T08:48:23;8.02;;;3.85;;
21848;SDS011;11089;49.852;19.700;2024-01-30T08:51:25;9.55;;;5.07;;
21848;SDS011;11089;49.852;19.700;2024-01-30T08:54:26;12.43;;;5.65;;
21848;SDS011;11089;49.852;19.700;2024-01-30T08:57:27;11.48;;;5.68;;
21848;SDS011;11089;49.852;19.700;2024-01-30T09:00:28;11.75;;;5.40;;
21848;SDS011;11089;49.852;19.700;2024-01-30T09:03:29;9.43;;;4.72;;
21848;SDS011;11089;49.852;19.700;2024-01-30T09:06:30;10.07;;;5.35;;
21848;SDS011;11089;49.852;19.700;2024-01-30T09:09:31;10.48;;;4.78;;
21848;SDS011;11089;49.852;19.700;2024-01-30T09:12:32;9.23;;;4.82;;
21848;SDS011;11089;49.852;19.700;2024-01-30T09:15:33;9.23;;;4.57;;
21848;SDS011;11089;49.852;19.700;2024-01-30T09:18:35;10.35;;;5.40;;
21848;SDS011;11089;49.852;19.700;2024-01-30T09:21:36;10.20;;;4.72;;
21848;SDS011;11089;49.852;19.700;2024-01-30T09:24:37;9.80;;;4.80;;
21848;SDS011;11089;49.852;19.700;2024-01-30T09:27:38;9.05;;;4.80;;
21848;SDS011;11089;49.852;19.700;2024-01-30T09:30:40;12.85;;;5.03;;
21848;SDS011;11089;49.852;19.700;2024-01-30T09:33:41;8.98;;;5.05;;
21848;SDS011;11089;49.852;19.700;2024-01-30T09:36:44;10.95;;;5.05;;
21848;SDS011;11089;49.852;19.700;2024-01-30T09:39:45;11.70;;;5.55;;
21848;SDS011;11089;49.852;19.700;2024-01-30T09:42:46;9.57;;;5.03;;
21848;SDS011;11089;49.852;19.700;2024-01-30T09:45:50;11.57;;;5.28;;
21848;SDS011;11089;49.852;19.700;2024-01-30T09:48:52;9.45;;;5.20;;
21848;SDS011;11089;49.852;19.700;2024-01-30T09:51:55;11.85;;;5.88;;
21848;SDS011;11089;49.852;19.700;2024-01-30T09:54:57;13.45;;;5.65;;
21848;SDS011;11089;49.852;19.700;2024-01-30T09:58:01;10.32;;;5.47;;
21848;SDS011;11089;49.852;19.700;2024-01-30T10:01:02;8.80;;;4.47;;
21848;SDS011;11089;49.852;19.700;2024-01-30T10:04:03;8.05;;;4.53;;
21848;SDS011;11089;49.852;19.700;2024-01-30T10:07:05;9.15;;;4.57;;
21848;SDS011;11089;49.852;19.700;2024-01-30T10:10:07;11.70;;;5.10;;
21848;SDS011;11089;49.852;19.700;2024-01-30T10:13:08;11.88;;;6.32;;
21848;SDS011;11089;49.852;19.700;2024-01-30T10:16:10;10.82;;;4.88;;
21848;SDS011;11089;49.852;19.700;2024-01-30T10:19:13;10.10;;;5.25;;
21848;SDS011;11089;49.852;19.700;2024-01-30T10:22:14;11.30;;;5.53;;
21848;SDS011;11089;49.852;19.700;2024-01-30T10:25:15;9.02;;;5.05;;
21848;SDS011;11089;49.852;19.700;2024-01-30T10:28:16;9.80;;;5.38;;
21848;SDS011;11089;49.852;19.700;2024-01-30T10:31:18;9.75;;;5.43;;
21848;SDS011;11089;49.852;19.700;2024-01-30T10:34:19;10.63;;;5.78;;
21848;SDS011;11089;49.852;19.700;2024-01-30T10:37:20;10.63;;;5.95;;
21848;SDS011;11089;49.852;19.700;2024-01-30T10:40:27;8.75;;;5.30;;
21848;SDS011;11089;49.852;19.700;2024-01-30T10:43:32;7.82;;;4.78;;
21848;SDS011;11089;49.852;19.700;2024-01-30T10:46:39;10.18;;;5.38;;
21848;SDS011;11089;49.852;19.700;2024-01-30T10:49:42;8.25;;;4.50;;
21848;SDS011;11089;49.852;19.700;2024-01-30T10:52:44;9.30;;;5.05;;
21848;SDS011;11089;49.852;19.700;2024-01-30T10:55:45;10.13;;;5.10;;
21848;SDS011;11089;49.852;19.700;2024-01-30T10:58:48;10.13;;;5.85;;
21848;SDS011;11089;49.852;19.700;2024-01-30T11:01:50;10.68;;;6.25;;
21848;SDS011;11089;49.852;19.700;2024-01-30T11:04:56;10.00;;;5.80;;
21848;SDS011;11089;49.852;19.700;2024-01-30T11:07:58;10.88;;;5.72;;
21848;SDS011;11089;49.852;19.700;2024-01-30T11:10:59;10.10;;;5.35;;
21848;SDS011;11089;49.852;19.700;2024-01-30T11:14:00;9.77;;;5.03;;
21848;SDS011;11089;49.852;19.700;2024-01-30T11:17:02;11.35;;;5.47;;
21848;SDS011;11089;49.852;19.700;2024-01-30T11:20:04;10.50;;;5.20;;
21848;SDS011;11089;49.852;19.700;2024-01-30T11:23:05;9.02;;;5.20;;
21848;SDS011;11089;49.852;19.700;2024-01-30T11:26:07;10.45;;;5.60;;
21848;SDS011;11089;49.852;19.700;2024-01-30T11:29:13;10.02;;;5.50;;
21848;SDS011;11089;49.852;19.700;2024-01-30T11:32:16;9.38;;;5.38;;
21848;SDS011;11089;49.852;19.700;2024-01-30T11:35:25;10.18;;;5.53;;
21848;SDS011;11089;49.852;19.700;2024-01-30T11:38:26;9.48;;;5.43;;
21848;SDS011;11089;49.852;19.700;2024-01-30T11:41:28;10.23;;;5.20;;
21848;SDS011;11089;49.852;19.700;2024-01-30T11:44:30;10.15;;;5.30;;
21848;SDS011;11089;49.852;19.700;2024-01-30T11:47:31;10.65;;;5.88;;
21848;SDS011;11089;49.852;19.700;2024-01-30T11:50:35;12.20;;;6.38;;
21848;SDS011;11089;49.852;19.700;2024-01-30T11:53:38;13.30;;;7.18;;
21848;SDS011;11089;49.852;19.700;2024-01-30T11:56:39;14.27;;;7.85;;
21848;SDS011;11089;49.852;19.700;2024-01-30T11:59:40;14.90;;;7.97;;
21848;SDS011;11089;49.852;19.700;2024-01-30T12:02:41;12.90;;;7.47;;
21848;SDS011;11089;49.852;19.700;2024-01-30T12:05:42;18.40;;;9.40;;
21848;SDS011;11089;49.852;19.700;2024-01-30T12:12:01;17.05;;;9.15;;
21848;SDS011;11089;49.852;19.700;2024-01-30T12:15:02;19.52;;;11.20;;
21848;SDS011;11089;49.852;19.700;2024-01-30T12:18:06;14.88;;;7.80;;
21848;SDS011;11089;49.852;19.700;2024-01-30T12:21:07;31.73;;;15.70;;
21848;SDS011;11089;49.852;19.700;2024-01-30T12:24:08;25.88;;;14.38;;
21848;SDS011;11089;49.852;19.700;2024-01-30T12:27:11;23.42;;;12.68;;
21848;SDS011;11089;49.852;19.700;2024-01-30T12:30:20;31.23;;;17.33;;
21848;SDS011;11089;49.852;19.700;2024-01-30T12:33:21;33.05;;;18.00;;
21848;SDS011;11089;49.852;19.700;2024-01-30T12:36:23;24.85;;;12.77;;
21848;SDS011;11089;49.852;19.700;2024-01-30T12:39:24;33.60;;;17.45;;
21848;SDS011;11089;49.852;19.700;2024-01-30T12:42:26;28.48;;;15.18;;
21848;SDS011;11089;49.852;19.700;2024-01-30T12:45:27;31.80;;;16.30;;
21848;SDS011;11089;49.852;19.700;2024-01-30T12:48:28;23.27;;;13.70;;
21848;SDS011;11089;49.852;19.700;2024-01-30T12:51:30;26.00;;;15.10;;
21848;SDS011;11089;49.852;19.700;2024-01-30T12:54:34;30.73;;;17.05;;
21848;SDS011;11089;49.852;19.700;2024-01-30T12:57:35;22.52;;;13.32;;
21848;SDS011;11089;49.852;19.700;2024-01-30T13:00:36;27.33;;;15.02;;
21848;SDS011;11089;49.852;19.700;2024-01-30T13:03:37;27.48;;;15.90;;
21848;SDS011;11089;49.852;19.700;2024-01-30T13:06:38;31.40;;;17.77;;
21848;SDS011;11089;49.852;19.700;2024-01-30T13:09:39;35.78;;;19.27;;
21848;SDS011;11089;49.852;19.700;2024-01-30T13:12:40;31.10;;;18.45;;
21848;SDS011;11089;49.852;19.700;2024-01-30T13:15:42;27.60;;;15.82;;
21848;SDS011;11089;49.852;19.700;2024-01-30T13:18:43;31.70;;;16.65;;
21848;SDS011;11089;49.852;19.700;2024-01-30T13:21:44;27.85;;;15.40;;
21848;SDS011;11089;49.852;19.700;2024-01-30T13:24:46;29.40;;;16.50;;
21848;SDS011;11089;49.852;19.700;2024-01-30T13:27:47;27.70;;;16.23;;
21848;SDS011;11089;49.852;19.700;2024-01-30T13:30:48;32.55;;;17.65;;
21848;SDS011;11089;49.852;19.700;2024-01-30T13:33:49;36.25;;;17.83;;
21848;SDS011;11089;49.852;19.700;2024-01-30T13:36:50;29.52;;;17.58;;
21848;SDS011;11089;49.852;19.700;2024-01-30T13:39:51;33.65;;;17.75;;
21848;SDS011;11089;49.852;19.700;2024-01-30T13:42:52;32.42;;;17.15;;
21848;SDS011;11089;49.852;19.700;2024-01-30T13:45:53;34.63;;;16.52;;
21848;SDS011;11089;49.852;19.700;2024-01-30T13:48:55;32.00;;;17.27;;
21848;SDS011;11089;49.852;19.700;2024-01-30T13:51:56;28.77;;;16.45;;
21848;SDS011;11089;49.852;19.700;2024-01-30T13:54:58;30.85;;;17.02;;
21848;SDS011;11089;49.852;19.700;2024-01-30T13:57:59;30.60;;;17.13;;
21848;SDS011;11089;49.852;19.700;2024-01-30T14:01:01;31.10;;;16.60;;
21848;SDS011;11089;49.852;19.700;2024-01-30T14:04:03;27.23;;;15.68;;
21848;SDS011;11089;49.852;19.700;2024-01-30T14:07:04;33.03;;;16.27;;
21848;SDS011;11089;49.852;19.700;2024-01-30T14:10:06;30.08;;;16.58;;
21848;SDS011;11089;49.852;19.700;2024-01-30T14:13:07;30.25;;;16.13;;
21848;SDS011;11089;49.852;19.700;2024-01-30T14:16:08;33.53;;;16.95;;
21848;SDS011;11089;49.852;19.700;2024-01-30T14:19:09;40.03;;;19.52;;
21848;SDS011;11089;49.852;19.700;2024-01-30T14:22:10;35.67;;;21.15;;
21848;SDS011;11089;49.852;19.700;2024-01-30T14:25:11;38.10;;;19.25;;
21848;SDS011;11089;49.852;19.700;2024-01-30T14:28:12;39.55;;;20.75;;
21848;SDS011;11089;49.852;19.700;2024-01-30T14:31:13;38.13;;;19.73;;
21848;SDS011;11089;49.852;19.700;2024-01-30T14:34:14;35.88;;;19.13;;
21848;SDS011;11089;49.852;19.700;2024-01-30T14:37:15;31.95;;;17.65;;
21848;SDS011;11089;49.852;19.700;2024-01-30T14:40:17;29.92;;;15.80;;
21848;SDS011;11089;49.852;19.700;2024-01-30T14:43:18;30.20;;;14.60;;
21848;SDS011;11089;49.852;19.700;2024-01-30T14:46:20;27.80;;;15.00;;
21848;SDS011;11089;49.852;19.700;2024-01-30T14:49:21;27.90;;;14.63;;
21848;SDS011;11089;49.852;19.700;2024-01-30T14:52:22;24.30;;;13.80;;
21848;SDS011;11089;49.852;19.700;2024-01-30T14:55:23;25.50;;;13.30;;
21848;SDS011;11089;49.852;19.700;2024-01-30T14:58:24;24.30;;;12.57;;
21848;SDS011;11089;49.852;19.700;2024-01-30T15:01:25;24.15;;;12.30;;
21848;SDS011;11089;49.852;19.700;2024-01-30T15:04:26;24.48;;;11.82;;
21848;SDS011;11089;49.852;19.700;2024-01-30T15:07:27;23.85;;;12.38;;
21848;SDS011;11089;49.852;19.700;2024-01-30T15:10:29;23.75;;;12.13;;
21848;SDS011;11089;49.852;19.700;2024-01-30T15:13:30;24.33;;;11.38;;
21848;SDS011;11089;49.852;19.700;2024-01-30T15:16:31;24.45;;;11.65;;
21848;SDS011;11089;49.852;19.700;2024-01-30T15:19:32;18.35;;;10.05;;
21848;SDS011;11089;49.852;19.700;2024-01-30T15:22:32;20.67;;;11.27;;
21848;SDS011;11089;49.852;19.700;2024-01-30T15:25:33;20.45;;;10.57;;
21848;SDS011;11089;49.852;19.700;2024-01-30T15:28:35;22.42;;;11.52;;
21848;SDS011;11089;49.852;19.700;2024-01-30T15:31:37;20.50;;;10.18;;
21848;SDS011;11089;49.852;19.700;2024-01-30T15:34:38;21.27;;;10.57;;
21848;SDS011;11089;49.852;19.700;2024-01-30T15:37:39;18.13;;;9.68;;
21848;SDS011;11089;49.852;19.700;2024-01-30T15:40:40;20.20;;;10.15;;
21848;SDS011;11089;49.852;19.700;2024-01-30T15:43:41;20.67;;;9.88;;
21848;SDS011;11089;49.852;19.700;2024-01-30T15:46:41;21.65;;;9.82;;
21848;SDS011;11089;49.852;19.700;2024-01-30T15:49:42;17.83;;;9.00;;
21848;SDS011;11089;49.852;19.700;2024-01-30T15:52:43;20.52;;;9.32;;
21848;SDS011;11089;49.852;19.700;2024-01-30T15:55:44;21.80;;;10.38;;
21848;SDS011;11089;49.852;19.700;2024-01-30T15:58:45;24.50;;;10.82;;
21848;SDS011;11089;49.852;19.700;2024-01-30T16:01:49;20.13;;;10.18;;
21848;SDS011;11089;49.852;19.700;2024-01-30T16:04:50;17.80;;;8.88;;
21848;SDS011;11089;49.852;19.700;2024-01-30T16:07:51;19.75;;;9.00;;
21848;SDS011;11089;49.852;19.700;2024-01-30T16:10:52;18.63;;;9.32;;
21848;SDS011;11089;49.852;19.700;2024-01-30T16:13:53;18.58;;;8.82;;
21848;SDS011;11089;49.852;19.700;2024-01-30T16:16:54;15.63;;;7.97;;
21848;SDS011;11089;49.852;19.700;2024-01-30T16:19:54;15.73;;;8.25;;
21848;SDS011;11089;49.852;19.700;2024-01-30T16:22:55;17.58;;;7.90;;
21848;SDS011;11089;49.852;19.700;2024-01-30T16:25:56;14.70;;;6.55;;
21848;SDS011;11089;49.852;19.700;2024-01-30T16:28:57;16.23;;;7.47;;
21848;SDS011;11089;49.852;19.700;2024-01-30T16:31:58;15.18;;;7.22;;
21848;SDS011;11089;49.852;19.700;2024-01-30T16:34:59;15.07;;;7.05;;
21848;SDS011;11089;49.852;19.700;2024-01-30T16:38:00;15.25;;;6.80;;
21848;SDS011;11089;49.852;19.700;2024-01-30T16:41:01;16.02;;;7.78;;
21848;SDS011;11089;49.852;19.700;2024-01-30T16:44:03;16.48;;;7.55;;
21848;SDS011;11089;49.852;19.700;2024-01-30T16:47:04;15.45;;;6.90;;
21848;SDS011;11089;49.852;19.700;2024-01-30T16:50:05;13.15;;;6.72;;
21848;SDS011;11089;49.852;19.700;2024-01-30T16:53:06;14.00;;;7.13;;
21848;SDS011;11089;49.852;19.700;2024-01-30T16:56:07;15.60;;;7.18;;
21848;SDS011;11089;49.852;19.700;2024-01-30T16:59:08;14.52;;;8.18;;
21848;SDS011;11089;49.852;19.700;2024-01-30T17:02:09;17.23;;;7.75;;
21848;SDS011;11089;49.852;19.700;2024-01-30T17:05:10;14.55;;;7.07;;
21848;SDS011;11089;49.852;19.700;2024-01-30T17:08:11;14.90;;;7.35;;
21848;SDS011;11089;49.852;19.700;2024-01-30T17:11:12;15.20;;;7.10;;
21848;SDS011;11089;49.852;19.700;2024-01-30T17:14:13;17.73;;;8.20;;
21848;SDS011;11089;49.852;19.700;2024-01-30T17:17:14;14.57;;;7.47;;
21848;SDS011;11089;49.852;19.700;2024-01-30T17:20:15;18.80;;;7.88;;
21848;SDS011;11089;49.852;19.700;2024-01-30T17:23:16;16.92;;;8.25;;
21848;SDS011;11089;49.852;19.700;2024-01-30T17:26:17;17.85;;;9.02;;
21848;SDS011;11089;49.852;19.700;2024-01-30T17:29:18;24.58;;;10.52;;
21848;SDS011;11089;49.852;19.700;2024-01-30T17:32:19;22.05;;;9.73;;
21848;SDS011;11089;49.852;19.700;2024-01-30T17:35:20;25.05;;;10.30;;
21848;SDS011;11089;49.852;19.700;2024-01-30T17:38:21;18.33;;;9.40;;
21848;SDS011;11089;49.852;19.700;2024-01-30T17:41:21;22.25;;;8.70;;
21848;SDS011;11089;49.852;19.700;2024-01-30T17:44:23;21.33;;;9.20;;